Time;durP1;ratioP1;P1;durP2;ratioP2;P2;SDS_P1;SDS_P2;PMS_P1;PMS_P2;Temp;Humidity;BMP_temperature;BMP_pressure;BME280_temperature;BME280_humidity;BME280_pressure;Samples;Min_cycle;Max_cycle;Signal;HPM_P1;HPM_P2
2024/03/29 00:00:52;;;;;;;0.32;0.30;;;9.10;76.80;;;;;;5094611;28;20050;-73
2024/03/29 00:03:18;;;;;;;0.80;0.22;;;9.00;76.80;;;;;;5114964;28;20371;-73
2024/03/29 00:05:43;;;;;;;0.43;0.25;;;9.00;76.90;;;;;;5114514;28;20043;-74
2024/03/29 00:08:09;;;;;;;0.43;0.30;;;9.00;77.00;;;;;;5114226;28;20039;-73
2024/03/29 00:10:35;;;;;;;0.50;0.20;;;9.00;77.00;;;;;;5096051;28;20126;-73
2024/03/29 00:13:00;;;;;;;0.32;0.30;;;8.90;77.00;;;;;;5114594;28;20035;-73
2024/03/29 00:15:26;;;;;;;0.47;0.22;;;8.90;77.10;;;;;;5096087;28;20063;-73
2024/03/29 00:17:52;;;;;;;0.20;0.20;;;8.90;77.10;;;;;;5093799;28;20544;-73
2024/03/29 00:20:17;;;;;;;0.20;0.20;;;8.90;77.30;;;;;;5114486;28;20044;-73
2024/03/29 00:22:43;;;;;;;1.40;0.30;;;8.80;77.30;;;;;;5095872;28;20492;-74
2024/03/29 00:25:09;;;;;;;0.38;0.28;;;8.80;77.20;;;;;;5077354;28;20123;-73
2024/03/29 00:27:36;;;;;;;0.20;0.20;;;8.80;77.20;;;;;;5096462;28;20039;-73
2024/03/29 00:30:02;;;;;;;0.80;0.30;;;8.80;77.10;;;;;;5094630;28;20032;-73
2024/03/29 00:32:27;;;;;;;0.35;0.35;;;8.80;77.20;;;;;;5114528;28;20130;-73
2024/03/29 00:34:54;;;;;;;0.52;0.20;;;8.80;77.10;;;;;;5095406;28;20151;-73
2024/03/29 00:37:20;;;;;;;0.30;0.30;;;8.80;77.20;;;;;;5114085;28;20092;-74
2024/03/29 00:39:46;;;;;;;0.30;0.20;;;8.80;77.20;;;;;;5096072;28;20059;-73
2024/03/29 00:42:15;;;;;;;0.40;0.30;;;8.80;77.20;;;;;;5114282;28;20040;-74
2024/03/29 00:44:41;;;;;;;0.65;0.38;;;8.80;77.20;;;;;;5095774;28;20040;-74
2024/03/29 00:47:07;;;;;;;0.20;0.20;;;8.80;77.20;;;;;;5095343;28;20045;-72
2024/03/29 00:49:33;;;;;;;0.52;0.30;;;8.90;77.10;;;;;;5094481;28;20079;-73
2024/03/29 00:52:01;;;;;;;0.88;0.30;;;9.00;76.90;;;;;;5094106;28;20068;-73
2024/03/29 00:54:26;;;;;;;0.45;0.35;;;8.90;76.90;;;;;;5076780;28;20394;-73
2024/03/29 00:56:52;;;;;;;0.40;0.30;;;8.90;76.70;;;;;;5095912;28;20129;-74
2024/03/29 00:59:19;;;;;;;0.30;0.30;;;8.90;76.70;;;;;;5114019;28;20100;-74
2024/03/29 01:01:45;;;;;;;0.30;0.20;;;9.00;76.70;;;;;;5113689;28;20043;-74
2024/03/29 01:04:11;;;;;;;0.38;0.30;;;9.00;76.50;;;;;;5095079;28;20059;-74
2024/03/29 01:06:37;;;;;;;0.20;0.20;;;9.10;76.50;;;;;;5095247;28;20070;-73
2024/03/29 01:09:03;;;;;;;0.28;0.28;;;9.00;76.30;;;;;;5094844;28;20043;-74
2024/03/29 01:11:30;;;;;;;0.20;0.20;;;9.00;76.30;;;;;;5095549;28;20401;-73
2024/03/29 01:13:57;;;;;;;1.17;0.28;;;9.10;76.40;;;;;;5095138;28;20040;-73
2024/03/29 01:16:23;;;;;;;0.20;0.20;;;9.00;76.40;;;;;;5094893;28;20139;-73
2024/03/29 01:18:49;;;;;;;2.35;0.32;;;9.00;76.50;;;;;;5076513;28;20039;-73
2024/03/29 01:21:15;;;;;;;0.60;0.32;;;9.00;76.50;;;;;;5094123;28;20447;-72
2024/03/29 01:23:41;;;;;;;0.10;0.10;;;9.00;76.60;;;;;;5094253;28;20046;-72
2024/03/29 01:26:07;;;;;;;1.17;0.22;;;9.00;76.60;;;;;;5112808;28;20043;-73
2024/03/29 01:28:34;;;;;;;0.20;0.20;;;9.00;76.70;;;;;;5113145;28;20043;-72
2024/03/29 01:31:02;;;;;;;0.10;0.10;;;9.00;76.70;;;;;;5094785;28;20051;-73
2024/03/29 01:33:32;;;;;;;0.30;0.20;;;9.00;76.60;;;;;;5033325;28;20049;-73
2024/03/29 01:35:58;;;;;;;1.05;0.30;;;8.90;76.70;;;;;;5033388;28;20048;-73
2024/03/29 01:38:24;;;;;;;1.27;0.20;;;8.90;76.70;;;;;;5050057;28;20398;-72
2024/03/29 01:40:49;;;;;;;0.50;0.20;;;8.90;76.70;;;;;;5049980;28;20051;-73
2024/03/29 01:43:15;;;;;;;0.40;0.20;;;8.90;76.70;;;;;;5049823;28;20045;-73
2024/03/29 01:45:43;;;;;;;1.40;0.30;;;8.90;76.70;;;;;;5049950;28;20037;-74
2024/03/29 01:48:09;;;;;;;0.45;0.22;;;8.90;76.70;;;;;;5049563;28;20390;-73
2024/03/29 01:50:37;;;;;;;1.17;0.30;;;8.90;76.70;;;;;;5050070;28;20049;-73
2024/03/29 01:53:05;;;;;;;0.30;0.20;;;8.90;76.60;;;;;;5047730;28;20041;-73
2024/03/29 01:55:31;;;;;;;0.20;0.20;;;8.90;76.60;;;;;;5049740;28;20068;-73
2024/03/29 01:57:58;;;;;;;0.30;0.25;;;8.90;76.70;;;;;;5049802;28;20041;-73
2024/03/29 02:00:24;;;;;;;0.25;0.20;;;8.90;76.70;;;;;;5033061;28;20540;-73
2024/03/29 02:02:51;;;;;;;0.43;0.20;;;8.80;76.60;;;;;;5050006;28;20132;-72
2024/03/29 02:05:18;;;;;;;0.30;0.20;;;8.90;76.80;;;;;;5088705;28;20045;-72
2024/03/29 02:07:47;;;;;;;0.30;0.20;;;8.70;76.70;;;;;;5112737;28;20052;-74
2024/03/29 02:10:15;;;;;;;0.20;0.20;;;8.80;76.80;;;;;;5112165;28;20465;-73
2024/03/29 02:12:40;;;;;;;1.25;0.47;;;8.80;76.90;;;;;;5112579;28;20078;-74
2024/03/29 02:15:07;;;;;;;1.17;0.20;;;8.80;76.90;;;;;;5076165;28;20071;-73
2024/03/29 02:17:33;;;;;;;0.38;0.30;;;8.80;77.00;;;;;;5094348;28;20078;-73
2024/03/29 02:19:59;;;;;;;0.20;0.20;;;8.80;77.00;;;;;;5094125;28;20481;-73
2024/03/29 02:22:27;;;;;;;0.38;0.30;;;8.80;77.00;;;;;;5093893;28;20039;-73
2024/03/29 02:24:53;;;;;;;0.30;0.30;;;8.80;77.00;;;;;;5112443;28;20083;-73
2024/03/29 02:27:20;;;;;;;0.95;0.35;;;8.80;76.90;;;;;;5112824;28;20050;-72
2024/03/29 02:29:46;;;;;;;0.10;0.10;;;8.80;76.90;;;;;;5093956;28;20035;-73
2024/03/29 02:32:12;;;;;;;1.42;0.32;;;8.80;76.90;;;;;;5112597;28;20046;-73
2024/03/29 02:34:38;;;;;;;0.40;0.35;;;8.80;76.80;;;;;;5097599;28;20136;-72
2024/03/29 02:37:04;;;;;;;0.28;0.20;;;8.90;76.60;;;;;;5097353;28;20093;-73
2024/03/29 02:39:30;;;;;;;0.60;0.20;;;8.90;76.50;;;;;;5115521;28;20042;-73
2024/03/29 02:41:56;;;;;;;0.20;0.20;;;9.00;76.50;;;;;;5035911;28;20124;-73
2024/03/29 02:44:22;;;;;;;0.10;0.10;;;8.90;76.30;;;;;;5052665;28;20072;-73
2024/03/29 02:46:47;;;;;;;0.90;0.22;;;9.00;76.30;;;;;;5019515;28;20083;-73
2024/03/29 02:49:13;;;;;;;0.88;0.28;;;9.10;76.30;;;;;;5036087;28;20044;-73
2024/03/29 02:51:39;;;;;;;0.45;0.30;;;9.10;76.20;;;;;;5048482;28;20136;-74
2024/03/29 02:54:05;;;;;;;0.63;0.28;;;9.10;76.20;;;;;;5036361;28;20037;-74
2024/03/29 02:56:33;;;;;;;0.30;0.28;;;9.20;76.80;;;;;;5053005;28;20048;-74
2024/03/29 02:58:59;;;;;;;0.45;0.20;;;9.20;76.00;;;;;;5036974;28;20056;-74
2024/03/29 03:01:24;;;;;;;0.45;0.20;;;9.20;76.00;;;;;;5050530;28;20041;-74
2024/03/29 03:03:50;;;;;;;0.70;0.30;;;9.10;76.00;;;;;;5035967;28;20565;-74
2024/03/29 03:06:16;;;;;;;0.47;0.20;;;9.20;76.10;;;;;;5019358;28;20403;-73
2024/03/29 03:11:23;;;;;;;1.08;0.30;;;9.20;76.20;;;;;;5036787;28;20102;-73
2024/03/29 03:13:49;;;;;;;1.55;0.30;;;9.20;76.10;;;;;;5106584;28;20040;-73
2024/03/29 03:16:15;;;;;;;0.25;0.20;;;9.20;76.20;;;;;;5097478;28;20084;-73
2024/03/29 03:18:40;;;;;;;0.30;0.30;;;9.20;76.20;;;;;;5115238;28;20523;-74
2024/03/29 03:21:06;;;;;;;1.25;0.30;;;9.20;76.20;;;;;;5115326;28;20418;-73
2024/03/29 03:23:32;;;;;;;0.30;0.17;;;9.20;76.30;;;;;;5114957;28;20039;-73
2024/03/29 03:25:59;;;;;;;0.22;0.22;;;9.20;76.40;;;;;;5096992;28;20040;-73
2024/03/29 03:28:25;;;;;;;0.40;0.20;;;9.20;76.50;;;;;;5115224;28;20078;-73
2024/03/29 03:30:52;;;;;;;0.25;0.22;;;9.20;76.50;;;;;;5115196;28;20074;-74
2024/03/29 03:33:19;;;;;;;0.77;0.30;;;9.20;76.60;;;;;;5095296;28;20044;-75
2024/03/29 03:35:45;;;;;;;0.47;0.20;;;9.20;76.50;;;;;;5079660;28;20038;-73
2024/03/29 03:38:11;;;;;;;0.38;0.30;;;9.20;76.40;;;;;;5079797;28;20044;-74
2024/03/29 03:40:37;;;;;;;0.90;0.22;;;9.20;76.40;;;;;;5114757;28;20040;-74
2024/03/29 03:43:06;;;;;;;1.27;0.20;;;9.30;76.40;;;;;;5114598;28;20047;-73
2024/03/29 03:45:37;;;;;;;0.65;0.30;;;9.30;76.40;;;;;;5097137;28;20054;-74
2024/03/29 03:48:06;;;;;;;1.40;0.40;;;9.40;76.30;;;;;;5114715;28;20061;-73
2024/03/29 03:50:33;;;;;;;0.47;0.20;;;9.40;76.10;;;;;;5114469;28;20035;-74
2024/03/29 03:52:58;;;;;;;0.35;0.20;;;9.30;76.00;;;;;;5096221;28;20035;-74
2024/03/29 03:55:24;;;;;;;0.30;0.20;;;9.40;76.10;;;;;;5114439;28;20047;-74
2024/03/29 03:57:50;;;;;;;0.25;0.20;;;9.30;76.20;;;;;;5096324;28;20544;-74
2024/03/29 04:00:17;;;;;;;0.68;0.25;;;9.30;76.30;;;;;;5092428;28;20048;-74
2024/03/29 04:02:48;;;;;;;0.60;0.20;;;9.20;76.50;;;;;;5095824;28;20035;-74
2024/03/29 04:05:14;;;;;;;1.23;0.38;;;9.20;76.70;;;;;;5095941;28;20050;-74
2024/03/29 04:07:39;;;;;;;0.38;0.30;;;9.10;76.90;;;;;;5079229;28;20118;-75
2024/03/29 04:10:05;;;;;;;0.65;0.20;;;9.00;77.10;;;;;;5114313;28;20478;-73
2024/03/29 04:12:33;;;;;;;0.20;0.20;;;9.00;77.20;;;;;;5093638;28;20493;-74
2024/03/29 04:14:59;;;;;;;0.28;0.20;;;9.00;77.50;;;;;;5062329;28;20042;-74
2024/03/29 04:17:24;;;;;;;0.85;0.32;;;8.90;77.60;;;;;;5077998;28;20032;-74
2024/03/29 04:19:50;;;;;;;0.40;0.30;;;8.90;78.40;;;;;;5096148;28;20040;-75
2024/03/29 04:22:16;;;;;;;0.90;0.40;;;8.80;78.50;;;;;;5114473;28;20077;-75
2024/03/29 04:24:41;;;;;;;0.40;0.20;;;8.80;78.10;;;;;;5095939;28;20093;-74
2024/03/29 04:27:08;;;;;;;0.80;0.15;;;8.80;78.30;;;;;;5114231;28;20048;-74
2024/03/29 04:29:34;;;;;;;0.70;0.30;;;8.70;78.40;;;;;;5095718;28;20070;-74
2024/03/29 04:31:59;;;;;;;0.22;0.20;;;8.80;78.60;;;;;;5078551;28;20079;-74
2024/03/29 04:34:25;;;;;;;0.10;0.10;;;8.70;78.50;;;;;;5114048;28;20027;-75
2024/03/29 04:36:51;;;;;;;0.43;0.10;;;8.70;78.70;;;;;;5078823;28;20085;-74
2024/03/29 04:39:16;;;;;;;0.10;0.10;;;8.70;78.70;;;;;;5095126;28;20048;-75
2024/03/29 04:41:42;;;;;;;0.10;0.10;;;8.70;78.80;;;;;;5078718;28;20039;-75
2024/03/29 04:44:08;;;;;;;0.45;0.10;;;8.70;79.00;;;;;;5061893;28;20447;-75
2024/03/29 04:46:34;;;;;;;0.03;0.03;;;8.70;79.10;;;;;;5095174;28;20088;-76
2024/03/29 04:49:00;;;;;;;0.10;0.10;;;8.60;79.10;;;;;;5078916;28;20435;-75
2024/03/29 04:51:26;;;;;;;0.85;0.10;;;8.60;79.30;;;;;;5096135;28;20442;-75
2024/03/29 04:53:51;;;;;;;0.13;0.10;;;8.60;79.40;;;;;;5116099;28;20031;-75
2024/03/29 04:56:18;;;;;;;0.32;0.17;;;8.50;79.60;;;;;;5113791;28;20512;-75
2024/03/29 04:58:45;;;;;;;0.50;0.10;;;8.60;79.80;;;;;;5114970;28;20124;-75
2024/03/29 05:01:11;;;;;;;0.10;0.10;;;8.40;79.90;;;;;;5096896;28;20394;-75
2024/03/29 05:03:37;;;;;;;0.10;0.10;;;8.50;80.10;;;;;;5098127;28;20047;-76
2024/03/29 05:06:04;;;;;;;0.10;0.10;;;8.40;80.80;;;;;;5117568;28;20046;-76
2024/03/29 05:08:29;;;;;;;0.10;0.10;;;8.40;81.00;;;;;;5100052;28;20459;-76
2024/03/29 05:10:55;;;;;;;0.20;0.10;;;8.40;80.60;;;;;;5120230;28;20039;-76
2024/03/29 05:13:21;;;;;;;0.10;0.10;;;8.40;80.70;;;;;;5120447;28;20054;-76
2024/03/29 05:15:48;;;;;;;0.10;0.10;;;8.30;80.80;;;;;;5121631;28;20043;-77
2024/03/29 05:18:14;;;;;;;0.10;0.10;;;8.30;81.00;;;;;;5100536;28;20040;-77
2024/03/29 05:20:41;;;;;;;0.10;0.10;;;8.40;81.10;;;;;;5098118;28;20508;-76
2024/03/29 05:23:07;;;;;;;0.38;0.10;;;8.30;81.20;;;;;;5101761;28;20127;-77
2024/03/29 05:25:34;;;;;;;0.10;0.10;;;8.30;81.30;;;;;;5126064;28;20407;-77
2024/03/29 05:27:59;;;;;;;0.00;0.00;;;8.30;81.40;;;;;;5090173;28;20080;-77
2024/03/29 05:30:26;;;;;;;0.10;0.10;;;8.20;81.50;;;;;;5089793;28;20068;-77
2024/03/29 05:32:52;;;;;;;0.13;0.10;;;8.20;81.60;;;;;;5109569;28;20036;-76
2024/03/29 05:35:17;;;;;;;0.10;0.10;;;8.20;81.70;;;;;;5115176;28;20051;-77
2024/03/29 05:37:49;;;;;;;0.10;0.10;;;8.20;81.90;;;;;;5116479;28;20043;-77
2024/03/29 05:40:15;;;;;;;0.17;0.10;;;8.20;82.00;;;;;;5114969;28;20050;-77
2024/03/29 05:42:40;;;;;;;0.10;0.10;;;8.10;82.10;;;;;;5118036;28;20031;-78
2024/03/29 05:45:25;;;;;;;0.30;0.10;;;8.10;82.20;;;;;;5084887;28;20059;-77
2024/03/29 05:47:51;;;;;;;0.10;0.10;;;8.10;82.40;;;;;;5117081;28;20035;-77
2024/03/29 05:50:17;;;;;;;0.10;0.10;;;8.10;82.40;;;;;;5117009;28;20048;-77
2024/03/29 05:52:43;;;;;;;0.10;0.10;;;8.10;82.50;;;;;;5117197;27;20040;-78
2024/03/29 05:55:09;;;;;;;0.75;0.13;;;8.10;82.50;;;;;;5116670;28;20443;-77
2024/03/29 05:57:38;;;;;;;0.10;0.10;;;8.10;82.60;;;;;;5098496;28;20050;-77
2024/03/29 06:00:05;;;;;;;0.28;0.17;;;8.10;82.60;;;;;;5116642;28;20031;-78
2024/03/29 06:02:31;;;;;;;0.10;0.10;;;8.00;82.60;;;;;;5114447;28;20040;-77
2024/03/29 06:04:57;;;;;;;0.28;0.20;;;8.00;82.70;;;;;;5132425;28;20042;-77
2024/03/29 06:07:23;;;;;;;0.20;0.20;;;8.00;82.70;;;;;;5110459;28;20126;-77
2024/03/29 06:09:48;;;;;;;0.22;0.20;;;8.00;82.80;;;;;;5131059;28;20039;-76
2024/03/29 06:12:14;;;;;;;0.10;0.10;;;8.10;82.90;;;;;;5131258;28;20548;-76
2024/03/29 06:17:28;;;;;;;0.30;0.20;;;8.00;83.00;;;;;;5126948;28;20078;-76
2024/03/29 06:19:56;;;;;;;0.00;0.00;;;8.10;83.10;;;;;;5109423;28;20059;-75
2024/03/29 06:22:24;;;;;;;0.20;0.10;;;8.00;83.10;;;;;;5094725;28;20089;-76
2024/03/29 06:24:51;;;;;;;0.10;0.10;;;8.10;83.20;;;;;;5110574;28;20074;-76
2024/03/29 06:27:20;;;;;;;0.10;0.10;;;8.00;83.20;;;;;;5116375;28;20036;-76
2024/03/29 06:29:46;;;;;;;0.10;0.10;;;8.10;83.30;;;;;;5097283;28;20039;-76
2024/03/29 06:32:12;;;;;;;0.08;0.08;;;8.20;83.40;;;;;;5094244;28;20054;-76
2024/03/29 06:34:38;;;;;;;0.10;0.10;;;8.00;83.40;;;;;;5129253;28;20067;-76
2024/03/29 06:37:07;;;;;;;0.03;0.03;;;8.00;83.40;;;;;;5090631;28;20043;-76
2024/03/29 06:39:33;;;;;;;0.10;0.10;;;8.10;83.60;;;;;;5100424;28;20099;-76
2024/03/29 06:41:59;;;;;;;0.40;0.20;;;8.10;83.60;;;;;;5084913;28;20408;-78
2024/03/29 06:44:25;;;;;;;1.17;0.10;;;8.10;83.60;;;;;;5103499;28;20050;-76
2024/03/29 06:46:51;;;;;;;0.17;0.17;;;8.20;83.70;;;;;;5099764;28;20565;-76
2024/03/29 06:49:17;;;;;;;0.03;0.03;;;8.10;83.70;;;;;;5119750;28;20486;-76
2024/03/29 06:51:43;;;;;;;0.90;0.20;;;8.10;83.80;;;;;;5097298;28;20496;-74
2024/03/29 06:54:09;;;;;;;0.10;0.10;;;8.20;83.90;;;;;;5114356;28;20031;-74
2024/03/29 06:56:35;;;;;;;0.13;0.13;;;8.20;83.90;;;;;;5095605;28;20114;-75
2024/03/29 06:59:01;;;;;;;0.30;0.15;;;8.10;83.90;;;;;;5113580;28;20074;-75
2024/03/29 07:01:27;;;;;;;0.10;0.10;;;8.20;84.00;;;;;;5078889;28;20496;-75
2024/03/29 07:03:52;;;;;;;0.10;0.10;;;8.20;84.40;;;;;;5095682;28;20504;-74
2024/03/29 07:06:21;;;;;;;0.10;0.10;;;8.20;84.10;;;;;;5113791;28;20040;-74
2024/03/29 07:08:47;;;;;;;0.20;0.20;;;8.20;84.20;;;;;;5113578;28;20043;-75
2024/03/29 07:11:12;;;;;;;0.20;0.20;;;8.20;84.20;;;;;;5112838;28;20039;-75
2024/03/29 07:13:38;;;;;;;0.40;0.20;;;8.20;84.20;;;;;;5059522;28;20094;-74
2024/03/29 07:16:07;;;;;;;0.10;0.10;;;8.20;84.30;;;;;;5113163;28;20032;-75
2024/03/29 07:18:36;;;;;;;0.10;0.10;;;8.20;84.30;;;;;;5079152;28;20065;-74
2024/03/29 07:21:02;;;;;;;0.35;0.20;;;8.20;84.40;;;;;;5116266;28;20036;-74
2024/03/29 07:23:28;;;;;;;0.20;0.20;;;8.30;84.50;;;;;;5116679;28;20046;-77
2024/03/29 07:26:05;;;;;;;0.10;0.10;;;8.30;84.50;;;;;;5096520;28;20054;-76
2024/03/29 07:28:31;;;;;;;0.20;0.20;;;8.30;84.50;;;;;;5102672;28;20096;-76
2024/03/29 07:31:04;;;;;;;0.10;0.10;;;8.40;84.60;;;;;;5085584;28;20055;-75
2024/03/29 07:33:30;;;;;;;0.20;0.20;;;8.30;84.60;;;;;;5106580;28;20036;-76
2024/03/29 07:35:56;;;;;;;0.10;0.10;;;8.30;84.50;;;;;;5125135;28;20043;-76
2024/03/29 07:38:23;;;;;;;0.10;0.10;;;8.40;84.60;;;;;;5090496;28;20048;-76
2024/03/29 07:40:49;;;;;;;0.10;0.10;;;8.40;84.60;;;;;;5124940;28;20039;-76
2024/03/29 07:43:15;;;;;;;0.10;0.10;;;8.50;84.60;;;;;;5123316;28;20059;-76
2024/03/29 07:45:44;;;;;;;0.10;0.10;;;8.50;84.60;;;;;;5122909;28;20042;-75
2024/03/29 07:48:13;;;;;;;0.10;0.10;;;8.50;84.50;;;;;;5104089;28;20489;-76
2024/03/29 07:50:40;;;;;;;0.40;0.20;;;8.50;85.20;;;;;;5102245;28;20048;-76
2024/03/29 07:53:06;;;;;;;0.20;0.20;;;8.60;84.60;;;;;;5056587;28;20049;-75
2024/03/29 07:55:31;;;;;;;0.10;0.10;;;8.50;84.60;;;;;;5041281;28;20052;-76
2024/03/29 07:57:58;;;;;;;0.10;0.10;;;8.50;84.70;;;;;;5041085;28;20458;-76
2024/03/29 08:00:25;;;;;;;0.10;0.10;;;8.50;84.80;;;;;;5057731;28;20084;-76
2024/03/29 08:02:52;;;;;;;0.10;0.10;;;8.50;84.80;;;;;;5059325;28;20053;-76
2024/03/29 08:05:18;;;;;;;0.10;0.10;;;8.50;84.90;;;;;;5040015;28;20115;-76
2024/03/29 08:07:43;;;;;;;0.35;0.10;;;8.50;84.90;;;;;;5054807;28;20502;-77
2024/03/29 08:10:10;;;;;;;0.22;0.22;;;8.50;85.00;;;;;;5057389;28;20052;-74
2024/03/29 08:12:37;;;;;;;0.20;0.20;;;8.60;85.20;;;;;;5018778;28;20442;-75
2024/03/29 08:15:07;;;;;;;0.40;0.30;;;8.60;85.20;;;;;;5035357;28;20051;-74
2024/03/29 08:17:33;;;;;;;0.20;0.20;;;8.60;85.20;;;;;;5035442;28;20036;-74
2024/03/29 08:19:58;;;;;;;0.17;0.13;;;8.60;85.20;;;;;;5051944;28;20403;-74
2024/03/29 08:22:24;;;;;;;0.10;0.10;;;8.70;85.30;;;;;;5051499;28;20091;-74
2024/03/29 08:24:50;;;;;;;0.10;0.10;;;8.60;85.30;;;;;;5101009;28;20050;-74
2024/03/29 08:27:16;;;;;;;0.10;0.10;;;8.60;85.30;;;;;;5114042;28;20050;-74
2024/03/29 08:29:43;;;;;;;0.43;0.10;;;8.60;85.30;;;;;;5095584;28;20129;-75
2024/03/29 08:32:10;;;;;;;0.10;0.10;;;8.60;85.30;;;;;;5095619;28;20446;-74
2024/03/29 08:34:36;;;;;;;0.10;0.10;;;8.70;85.50;;;;;;5094273;28;20043;-74
2024/03/29 08:37:03;;;;;;;0.20;0.20;;;8.70;85.50;;;;;;5114324;28;20112;-74
2024/03/29 08:39:30;;;;;;;0.10;0.10;;;8.70;85.40;;;;;;5096196;28;20032;-74
2024/03/29 08:41:55;;;;;;;0.25;0.20;;;8.80;85.50;;;;;;5079057;28;20126;-75
2024/03/29 08:44:21;;;;;;;0.10;0.10;;;8.80;85.40;;;;;;5095815;28;20183;-74
2024/03/29 08:46:47;;;;;;;0.10;0.10;;;8.90;85.50;;;;;;5095614;28;20385;-74
2024/03/29 08:49:13;;;;;;;0.35;0.20;;;8.80;85.30;;;;;;5113929;28;20104;-74
2024/03/29 08:51:38;;;;;;;0.20;0.10;;;9.00;85.40;;;;;;5095501;28;20144;-74
2024/03/29 08:54:07;;;;;;;0.10;0.10;;;9.10;85.30;;;;;;5114182;28;20031;-74
2024/03/29 08:56:36;;;;;;;0.35;0.20;;;9.10;85.30;;;;;;5113719;28;20038;-74
2024/03/29 08:59:07;;;;;;;0.25;0.10;;;9.30;85.20;;;;;;5078987;28;20027;-74
2024/03/29 09:01:36;;;;;;;0.35;0.20;;;9.40;84.90;;;;;;5113937;28;20048;-74
2024/03/29 09:04:04;;;;;;;0.20;0.20;;;9.60;84.70;;;;;;5113552;28;20035;-74
2024/03/29 09:06:30;;;;;;;0.20;0.20;;;9.80;84.50;;;;;;5094549;28;20646;-74
2024/03/29 09:08:55;;;;;;;0.22;0.20;;;9.90;84.30;;;;;;5095211;28;20107;-74
2024/03/29 09:11:21;;;;;;;0.20;0.10;;;10.00;84.20;;;;;;5095329;28;20127;-74
2024/03/29 09:13:48;;;;;;;0.30;0.20;;;10.10;84.10;;;;;;5113378;28;20035;-74
2024/03/29 09:16:14;;;;;;;1.40;0.20;;;10.10;84.10;;;;;;5094345;28;20035;-73
2024/03/29 09:18:39;;;;;;;0.20;0.20;;;10.20;84.10;;;;;;5113546;28;20027;-74
2024/03/29 09:21:06;;;;;;;0.32;0.15;;;10.20;84.10;;;;;;5078136;28;20044;-72
2024/03/29 09:23:32;;;;;;;0.10;0.10;;;10.20;84.10;;;;;;5113766;28;20508;-74
2024/03/29 09:25:58;;;;;;;0.17;0.10;;;10.30;84.20;;;;;;5094818;28;20122;-74
2024/03/29 09:28:24;;;;;;;0.30;0.22;;;10.30;84.00;;;;;;5095179;28;20077;-74
2024/03/29 09:30:50;;;;;;;0.65;0.30;;;10.30;83.90;;;;;;5112956;28;20075;-74
2024/03/29 09:33:16;;;;;;;0.20;0.20;;;10.40;84.30;;;;;;5094172;28;20559;-74
2024/03/29 09:35:43;;;;;;;0.20;0.20;;;10.40;84.50;;;;;;5113255;28;20169;-74
2024/03/29 09:38:09;;;;;;;0.77;0.20;;;10.40;84.40;;;;;;5094786;28;20516;-73
2024/03/29 09:40:36;;;;;;;0.20;0.20;;;10.60;84.40;;;;;;5094158;28;20031;-74
2024/03/29 09:43:02;;;;;;;0.20;0.20;;;10.70;84.20;;;;;;5112447;28;20118;-73
2024/03/29 09:45:37;;;;;;;0.30;0.30;;;10.90;84.00;;;;;;5113303;28;20453;-73
2024/03/29 09:48:04;;;;;;;0.20;0.20;;;11.00;83.70;;;;;;5093694;28;20039;-73
2024/03/29 09:50:31;;;;;;;0.30;0.22;;;11.10;83.50;;;;;;5094960;28;20047;-73
2024/03/29 09:52:58;;;;;;;0.60;0.40;;;11.20;83.30;;;;;;5094566;28;20040;-74
2024/03/29 09:55:26;;;;;;;0.47;0.30;;;11.30;83.10;;;;;;5113249;28;20040;-73
2024/03/29 09:57:52;;;;;;;0.47;0.30;;;11.30;82.90;;;;;;5112600;28;20070;-74
2024/03/29 10:00:18;;;;;;;1.80;0.32;;;11.40;83.00;;;;;;5093480;28;20067;-74
2024/03/29 10:02:44;;;;;;;0.55;0.35;;;11.40;83.00;;;;;;5092791;28;20044;-74
2024/03/29 10:05:12;;;;;;;0.30;0.30;;;11.40;83.00;;;;;;5112767;28;20050;-74
2024/03/29 10:07:39;;;;;;;0.32;0.20;;;11.50;82.90;;;;;;5094751;28;20074;-74
2024/03/29 10:10:05;;;;;;;0.75;0.60;;;11.50;82.90;;;;;;5077171;28;20457;-74
2024/03/29 10:12:31;;;;;;;0.32;0.32;;;11.60;82.80;;;;;;5112685;28;20485;-74
2024/03/29 10:15:14;;;;;;;0.30;0.30;;;11.60;82.70;;;;;;5094724;28;20067;-75
2024/03/29 10:17:45;;;;;;;0.40;0.32;;;11.50;82.60;;;;;;5096946;28;20024;-74
2024/03/29 10:20:11;;;;;;;0.43;0.40;;;11.50;82.70;;;;;;5112299;28;20114;-74
2024/03/29 10:22:45;;;;;;;0.82;0.40;;;11.60;83.10;;;;;;5077143;28;20178;-74
2024/03/29 10:25:13;;;;;;;0.40;0.30;;;11.60;82.70;;;;;;5093995;28;20063;-74
2024/03/29 10:27:40;;;;;;;1.15;0.40;;;11.70;82.80;;;;;;5093645;28;20031;-75
2024/03/29 10:30:08;;;;;;;0.20;0.20;;;11.70;82.70;;;;;;5112519;28;20035;-74
2024/03/29 10:32:39;;;;;;;1.75;0.40;;;11.70;82.70;;;;;;5092847;28;20047;-75
2024/03/29 10:35:09;;;;;;;0.95;0.30;;;11.70;82.80;;;;;;5049563;28;20087;-75
2024/03/29 10:37:39;;;;;;;0.30;0.30;;;11.80;82.80;;;;;;5032678;28;20044;-74
2024/03/29 10:40:08;;;;;;;0.98;0.40;;;11.80;82.60;;;;;;5050099;28;20402;-75
2024/03/29 10:42:38;;;;;;;0.55;0.40;;;11.90;82.50;;;;;;5049375;28;20071;-75
2024/03/29 10:45:06;;;;;;;0.32;0.32;;;12.10;82.40;;;;;;5049426;28;20036;-74
2024/03/29 10:47:33;;;;;;;0.73;0.40;;;12.20;82.30;;;;;;5016384;28;20384;-74
2024/03/29 10:49:59;;;;;;;0.47;0.43;;;12.40;82.10;;;;;;5016227;28;20408;-74
2024/03/29 10:52:25;;;;;;;0.38;0.38;;;12.50;81.90;;;;;;5032973;28;20049;-75
2024/03/29 10:54:52;;;;;;;0.50;0.30;;;12.50;81.70;;;;;;5035763;28;20119;-74
2024/03/29 10:57:24;;;;;;;1.58;0.40;;;12.60;81.60;;;;;;5036281;28;20041;-75
2024/03/29 11:00:08;;;;;;;1.30;0.40;;;12.60;81.50;;;;;;5053121;28;20120;-74
2024/03/29 11:02:46;;;;;;;0.50;0.40;;;12.70;81.50;;;;;;5034157;28;20040;-74
2024/03/29 11:05:14;;;;;;;0.40;0.40;;;12.70;81.40;;;;;;5062668;28;20097;-74
2024/03/29 11:07:42;;;;;;;1.00;0.50;;;12.70;81.40;;;;;;5097676;28;20477;-74
2024/03/29 11:10:26;;;;;;;0.30;0.30;;;12.80;81.40;;;;;;5097047;28;20039;-74
2024/03/29 11:13:16;;;;;;;0.50;0.50;;;12.80;81.20;;;;;;5115424;28;20055;-74
2024/03/29 11:15:45;;;;;;;0.43;0.43;;;12.90;81.10;;;;;;5115366;28;20040;-75
2024/03/29 11:18:11;;;;;;;0.20;0.20;;;13.10;81.00;;;;;;5115471;28;20036;-74
2024/03/29 11:20:40;;;;;;;0.40;0.40;;;13.30;80.90;;;;;;5115756;28;20404;-74
2024/03/29 11:23:12;;;;;;;0.57;0.55;;;13.40;80.50;;;;;;5115514;28;20039;-75
2024/03/29 11:25:40;;;;;;;0.35;0.35;;;13.40;80.10;;;;;;5115039;28;20488;-75
2024/03/29 11:28:08;;;;;;;0.40;0.40;;;13.50;80.00;;;;;;5096710;28;20078;-75
2024/03/29 11:30:41;;;;;;;0.57;0.43;;;13.50;80.10;;;;;;5097187;28;20066;-75
2024/03/29 11:33:07;;;;;;;0.60;0.45;;;13.40;80.30;;;;;;5063512;28;20035;-74
2024/03/29 11:35:33;;;;;;;0.30;0.30;;;13.40;80.30;;;;;;5115037;28;20036;-74
2024/03/29 11:37:59;;;;;;;0.88;0.40;;;13.40;80.50;;;;;;5115419;28;20181;-76
2024/03/29 11:40:30;;;;;;;0.40;0.40;;;13.60;80.40;;;;;;5115026;28;20032;-75
2024/03/29 11:42:56;;;;;;;0.70;0.40;;;13.80;80.00;;;;;;5079725;28;20042;-75
2024/03/29 11:45:28;;;;;;;0.50;0.40;;;13.80;79.60;;;;;;5114817;28;20338;-74
2024/03/29 11:47:55;;;;;;;0.40;0.40;;;13.80;79.60;;;;;;5114707;28;20035;-74
2024/03/29 11:50:21;;;;;;;0.30;0.30;;;13.80;79.60;;;;;;5114859;28;20043;-74
2024/03/29 11:52:47;;;;;;;0.50;0.35;;;13.90;79.80;;;;;;5096494;28;20043;-74
2024/03/29 11:55:12;;;;;;;0.90;0.40;;;14.10;79.80;;;;;;5115011;28;20504;-74
2024/03/29 11:57:40;;;;;;;0.30;0.30;;;14.10;79.40;;;;;;5079383;28;20042;-75
2024/03/29 12:00:09;;;;;;;0.50;0.38;;;14.20;79.10;;;;;;5096309;28;20130;-75
2024/03/29 12:02:39;;;;;;;0.30;0.30;;;14.20;78.90;;;;;;5114276;28;20047;-75
2024/03/29 12:05:08;;;;;;;0.20;0.20;;;14.30;78.80;;;;;;5096020;28;20043;-76
2024/03/29 12:07:35;;;;;;;0.40;0.30;;;14.30;78.90;;;;;;5114619;28;20040;-75
2024/03/29 12:10:01;;;;;;;0.20;0.20;;;14.40;78.80;;;;;;5096078;28;20047;-75
2024/03/29 12:12:26;;;;;;;0.65;0.35;;;14.30;78.80;;;;;;5114453;28;20154;-74
2024/03/29 12:14:52;;;;;;;0.40;0.30;;;14.30;78.80;;;;;;5114697;28;20089;-74
2024/03/29 12:17:18;;;;;;;0.30;0.30;;;14.40;78.80;;;;;;5096314;28;20035;-74
2024/03/29 12:19:45;;;;;;;1.10;0.32;;;14.30;78.60;;;;;;5114383;28;20035;-74
2024/03/29 12:22:11;;;;;;;0.52;0.47;;;14.30;78.70;;;;;;5077410;28;20035;-74
2024/03/29 12:24:37;;;;;;;0.65;0.40;;;14.40;78.50;;;;;;5114447;28;20055;-74
2024/03/29 12:27:03;;;;;;;0.20;0.20;;;14.40;79.10;;;;;;5114624;28;20047;-74
2024/03/29 12:29:29;;;;;;;0.30;0.30;;;14.40;78.40;;;;;;5094505;28;20533;-74
2024/03/29 12:32:02;;;;;;;0.30;0.30;;;14.30;78.30;;;;;;5095703;28;20040;-74
2024/03/29 12:34:28;;;;;;;0.20;0.20;;;14.40;78.20;;;;;;5096547;28;20046;-73
2024/03/29 12:36:53;;;;;;;0.30;0.30;;;14.50;78.30;;;;;;5113971;28;20028;-73
2024/03/29 12:39:19;;;;;;;0.32;0.32;;;14.60;78.00;;;;;;5114493;28;20393;-76
2024/03/29 12:41:47;;;;;;;0.52;0.22;;;14.60;78.00;;;;;;5114340;28;20497;-71
2024/03/29 12:44:13;;;;;;;0.25;0.25;;;14.50;77.80;;;;;;5095883;28;20116;-73
2024/03/29 12:46:39;;;;;;;0.20;0.20;;;14.60;77.70;;;;;;5079184;28;20512;-73
2024/03/29 12:49:10;;;;;;;0.30;0.30;;;14.60;77.50;;;;;;5113876;28;20038;-74
2024/03/29 12:51:35;;;;;;;0.45;0.25;;;14.60;77.60;;;;;;5079564;28;20342;-74
2024/03/29 12:54:03;;;;;;;0.30;0.30;;;14.60;77.60;;;;;;5113839;28;20055;-73
2024/03/29 12:56:30;;;;;;;0.52;0.35;;;14.60;77.60;;;;;;5096155;28;20039;-73